createdAt,value
2017-06-08T00:03:59.342Z,1012.19
2017-06-08T00:04:39.879Z,1012.27
2017-06-08T00:05:20.418Z,1012.22
2017-06-08T00:06:00.956Z,1012.2
2017-06-08T00:06:41.496Z,1012.21
2017-06-08T00:07:22.035Z,1012.24
2017-06-08T00:08:02.569Z,1012.26
2017-06-08T00:08:43.109Z,1012.24
2017-06-08T00:09:23.647Z,1012.26
2017-06-08T00:10:04.183Z,1012.23
2017-06-08T00:10:44.725Z,1012.25
2017-06-08T00:11:25.269Z,1012.27
2017-06-08T00:12:05.816Z,1012.26
2017-06-08T00:12:46.359Z,1012.3
2017-06-08T00:13:26.901Z,1012.29
2017-06-08T00:14:07.431Z,1012.26
2017-06-08T00:14:47.967Z,1012.26
2017-06-08T00:15:28.510Z,1012.25
2017-06-08T00:16:09.088Z,1012.27
2017-06-08T00:16:49.590Z,1012.25
2017-06-08T00:17:30.125Z,1012.23
2017-06-08T00:18:10.671Z,1012.2
2017-06-08T00:18:51.218Z,1012.22
2017-06-08T00:19:31.756Z,1012.21
2017-06-08T00:20:12.300Z,1012.23
2017-06-08T00:20:52.839Z,1012.21
2017-06-08T00:21:33.375Z,1012.19
2017-06-08T00:22:13.919Z,1012.18
2017-06-08T00:22:54.460Z,1012.16
2017-06-08T00:23:35.004Z,1012.17
2017-06-08T00:24:15.547Z,1012.18
2017-06-08T00:24:56.091Z,1012.16
2017-06-08T00:25:36.631Z,1012.15
2017-06-08T00:26:17.173Z,1012.15
2017-06-08T00:26:57.727Z,1012.2
2017-06-08T00:27:38.272Z,1012.19
2017-06-08T00:28:18.818Z,1012.16
2017-06-08T00:28:59.360Z,1012.18
2017-06-08T00:29:39.981Z,1012.16
2017-06-08T00:30:20.511Z,1012.17
2017-06-08T00:31:01.050Z,1012.2
2017-06-08T00:31:41.595Z,1012.15
2017-06-08T00:32:22.140Z,1012.17
2017-06-08T00:33:02.685Z,1012.16
2017-06-08T00:33:43.230Z,1012.16
2017-06-08T00:34:23.765Z,1012.17
2017-06-08T00:35:04.303Z,1012.16
2017-06-08T00:35:44.835Z,1012.2
2017-06-08T00:36:25.378Z,1012.18
2017-06-08T00:37:05.920Z,1012.2
2017-06-08T00:37:46.468Z,1012.2
2017-06-08T00:38:27.010Z,1012.19
2017-06-08T00:39:07.560Z,1012.18
2017-06-08T00:39:48.113Z,1012.18
2017-06-08T00:40:28.666Z,1012.18
2017-06-08T00:41:09.216Z,1012.2
2017-06-08T00:41:49.768Z,1012.15
2017-06-08T00:42:30.329Z,1012.17
2017-06-08T00:43:10.872Z,1012.16
2017-06-08T00:43:51.421Z,1012.18
2017-06-08T00:44:31.967Z,1012.18
2017-06-08T00:45:12.519Z,1012.22
2017-06-08T00:45:53.075Z,1012.21
2017-06-08T00:46:33.623Z,1012.24
2017-06-08T00:47:14.164Z,1012.19
2017-06-08T00:47:54.713Z,1012.19
2017-06-08T00:48:35.246Z,1012.17
2017-06-08T00:49:15.782Z,1012.18
2017-06-08T00:49:56.318Z,1012.18
2017-06-08T00:50:36.851Z,1012.18
2017-06-08T00:51:17.394Z,1012.18
2017-06-08T00:51:57.931Z,1012.19
2017-06-08T00:52:38.465Z,1012.17
2017-06-08T00:53:19.017Z,1012.19
2017-06-08T00:53:59.563Z,1012.21
2017-06-08T00:54:40.100Z,1012.18
2017-06-08T00:55:20.642Z,1012.17
2017-06-08T00:56:01.176Z,1012.16
2017-06-08T00:56:41.718Z,1012.2
2017-06-08T00:57:22.262Z,1012.15
2017-06-08T00:58:02.801Z,1012.17
2017-06-08T00:58:43.341Z,1012.17
2017-06-08T00:59:23.885Z,1012.16
2017-06-08T01:00:04.439Z,1012.16
2017-06-08T01:00:44.980Z,1012.13
2017-06-08T01:01:25.522Z,1012.15
2017-06-08T01:02:06.060Z,1012.17
2017-06-08T01:02:46.603Z,1012.18
2017-06-08T01:03:27.137Z,1012.2
2017-06-08T01:04:07.681Z,1012.16
2017-06-08T01:04:48.219Z,1012.15
2017-06-08T01:05:28.764Z,1012.18
2017-06-08T01:06:09.346Z,1012.18
2017-06-08T01:06:49.853Z,1012.13
2017-06-08T01:07:30.394Z,1012.14
2017-06-08T01:08:10.933Z,1012.17
2017-06-08T01:08:51.475Z,1012.18
2017-06-08T01:09:32.021Z,1012.16
2017-06-08T01:10:12.568Z,1012.19
2017-06-08T01:10:53.118Z,1012.17
2017-06-08T01:11:33.665Z,1012.22
2017-06-08T01:12:14.210Z,1012.22
2017-06-08T01:12:54.757Z,1012.23
2017-06-08T01:13:35.302Z,1012.23
2017-06-08T01:14:15.848Z,1012.23
2017-06-08T01:14:56.388Z,1012.26
2017-06-08T01:15:36.924Z,1012.23
2017-06-08T01:16:17.490Z,1012.24
2017-06-08T01:16:58.005Z,1012.26
2017-06-08T01:17:38.550Z,1012.26
2017-06-08T01:18:19.079Z,1012.26
2017-06-08T01:18:59.620Z,1012.24
2017-06-08T01:19:40.154Z,1012.27
2017-06-08T01:20:20.702Z,1012.26
2017-06-08T01:21:01.230Z,1012.27
2017-06-08T01:21:41.769Z,1012.29
2017-06-08T01:22:22.304Z,1012.25
2017-06-08T01:23:02.843Z,1012.27
2017-06-08T01:23:43.375Z,1012.27
2017-06-08T01:24:23.920Z,1012.25
2017-06-08T01:25:04.456Z,1012.27
2017-06-08T01:25:44.991Z,1012.22
2017-06-08T01:26:25.542Z,1012.26
2017-06-08T01:27:06.078Z,1012.23
2017-06-08T01:27:46.620Z,1012.24
2017-06-08T01:28:27.167Z,1012.25
2017-06-08T01:29:07.708Z,1012.23
2017-06-08T01:29:48.261Z,1012.25
2017-06-08T01:30:28.808Z,1012.22
2017-06-08T01:31:09.349Z,1012.25
2017-06-08T01:31:49.894Z,1012.22
2017-06-08T01:32:30.438Z,1012.26
2017-06-08T01:33:10.986Z,1012.28
2017-06-08T01:33:51.515Z,1012.26
2017-06-08T01:34:32.061Z,1012.27
2017-06-08T01:35:12.600Z,1012.29
2017-06-08T01:35:53.142Z,1012.29
2017-06-08T01:36:33.690Z,1012.24
2017-06-08T01:37:14.235Z,1012.23
2017-06-08T01:37:54.774Z,1012.28
2017-06-08T01:38:35.322Z,1012.28
2017-06-08T01:39:15.895Z,1012.27
2017-06-08T01:39:56.447Z,1012.27
2017-06-08T01:40:36.984Z,1012.28
2017-06-08T01:41:17.517Z,1012.24
2017-06-08T01:41:58.065Z,1012.24
2017-06-08T01:42:38.611Z,1012.25
2017-06-08T01:43:19.154Z,1012.25
2017-06-08T01:43:59.697Z,1012.24
2017-06-08T01:44:40.250Z,1012.26
2017-06-08T01:45:20.797Z,1012.25
2017-06-08T01:46:01.331Z,1012.22
2017-06-08T01:46:41.875Z,1012.22
2017-06-08T01:47:22.451Z,1012.23
2017-06-08T01:48:02.984Z,1012.22
2017-06-08T01:48:43.543Z,1012.2
2017-06-08T01:49:24.081Z,1012.22
2017-06-08T01:50:04.621Z,1012.26
2017-06-08T01:50:45.176Z,1012.21
2017-06-08T01:51:25.713Z,1012.26
2017-06-08T01:52:06.255Z,1012.21
2017-06-08T01:52:46.790Z,1012.24
2017-06-08T01:53:27.339Z,1012.24
2017-06-08T01:54:07.880Z,1012.22
2017-06-08T01:54:48.420Z,1012.24
2017-06-08T01:55:28.939Z,1012.2
2017-06-08T01:56:09.475Z,1012.18
2017-06-08T01:56:50.011Z,1012.22
2017-06-08T01:57:30.554Z,1012.22
2017-06-08T01:58:11.097Z,1012.23
2017-06-08T01:58:51.642Z,1012.21
2017-06-08T01:59:32.186Z,1012.21
2017-06-08T02:00:12.734Z,1012.19
2017-06-08T02:00:53.277Z,1012.18
2017-06-08T02:01:33.815Z,1012.18
2017-06-08T02:02:14.345Z,1012.15
2017-06-08T02:02:54.871Z,1012.15
2017-06-08T02:03:35.428Z,1012.12
2017-06-08T02:04:15.952Z,1012.12
2017-06-08T02:04:56.500Z,1012.14
2017-06-08T02:05:37.049Z,1012.11
2017-06-08T02:06:17.589Z,1012.12
2017-06-08T02:06:58.139Z,1012.11
2017-06-08T02:07:38.677Z,1012.14
2017-06-08T02:08:19.224Z,1012.14
2017-06-08T02:08:59.762Z,1012.11
2017-06-08T02:09:40.300Z,1012.08
2017-06-08T02:10:20.840Z,1012.07
2017-06-08T02:11:01.387Z,1012.06
2017-06-08T02:11:41.968Z,1012.01
2017-06-08T02:12:22.504Z,1012.03
2017-06-08T02:13:03.044Z,1012.03
2017-06-08T02:13:43.583Z,1011.99
2017-06-08T02:14:24.162Z,1012.02
2017-06-08T02:15:04.688Z,1012
2017-06-08T02:15:45.215Z,1012.01
2017-06-08T02:16:25.760Z,1012.02
2017-06-08T02:17:06.297Z,1012.01
2017-06-08T02:17:46.839Z,1012
2017-06-08T02:18:27.383Z,1012
2017-06-08T02:19:07.913Z,1012.02
2017-06-08T02:19:48.440Z,1012.02
2017-06-08T02:20:28.980Z,1011.98
2017-06-08T02:21:09.514Z,1012.03
2017-06-08T02:21:50.068Z,1011.99
2017-06-08T02:22:30.615Z,1011.99
2017-06-08T02:23:11.161Z,1012
2017-06-08T02:23:51.698Z,1012
2017-06-08T02:24:32.239Z,1011.99
2017-06-08T02:25:12.788Z,1012.01
2017-06-08T02:25:53.332Z,1012.01
2017-06-08T02:26:33.876Z,1011.97
2017-06-08T02:27:14.442Z,1011.97
2017-06-08T02:27:54.955Z,1011.94
2017-06-08T02:28:35.500Z,1011.95
2017-06-08T02:29:16.026Z,1011.96
2017-06-08T02:29:56.576Z,1011.96
2017-06-08T02:30:37.123Z,1012
2017-06-08T02:31:17.671Z,1011.98
2017-06-08T02:31:58.218Z,1012
2017-06-08T02:32:38.751Z,1011.99
2017-06-08T02:33:19.277Z,1011.98
2017-06-08T02:33:59.863Z,1011.97
2017-06-08T02:34:40.412Z,1011.94
2017-06-08T02:35:20.963Z,1011.96
2017-06-08T02:36:01.510Z,1011.94
2017-06-08T02:36:42.053Z,1011.92
2017-06-08T02:37:22.581Z,1011.92
2017-06-08T02:38:03.117Z,1011.89
2017-06-08T02:38:43.661Z,1011.94
2017-06-08T02:39:24.207Z,1011.93
2017-06-08T02:40:04.759Z,1011.89
2017-06-08T02:40:45.295Z,1011.89
2017-06-08T02:41:25.841Z,1011.95
2017-06-08T02:42:06.392Z,1011.93
2017-06-08T02:42:46.938Z,1011.93
2017-06-08T02:43:27.488Z,1011.94
2017-06-08T02:44:08.043Z,1011.98
2017-06-08T02:44:48.583Z,1011.98
2017-06-08T02:45:29.127Z,1011.95
2017-06-08T02:46:09.667Z,1011.96
2017-06-08T02:46:50.226Z,1011.92
2017-06-08T02:47:30.770Z,1011.92
2017-06-08T02:48:11.316Z,1011.92
2017-06-08T02:48:51.845Z,1011.93
2017-06-08T02:49:32.385Z,1011.91
2017-06-08T02:50:12.938Z,1011.93
2017-06-08T02:50:53.481Z,1011.91
2017-06-08T02:51:34.015Z,1011.91
2017-06-08T02:52:14.556Z,1011.89
2017-06-08T02:52:55.102Z,1011.89
2017-06-08T02:53:35.646Z,1011.9
2017-06-08T02:54:16.186Z,1011.91
2017-06-08T02:54:56.728Z,1011.9
2017-06-08T02:55:37.277Z,1011.91
2017-06-08T02:56:17.860Z,1011.88
2017-06-08T02:56:58.430Z,1011.9
2017-06-08T02:57:38.965Z,1011.9
2017-06-08T02:58:19.512Z,1011.91
2017-06-08T02:59:00.060Z,1011.91
2017-06-08T02:59:40.606Z,1011.97
2017-06-08T03:00:21.141Z,1011.98
2017-06-08T03:01:01.685Z,1011.9
2017-06-08T03:01:42.208Z,1011.95
2017-06-08T03:02:22.749Z,1011.95
2017-06-08T03:03:03.310Z,1011.96
2017-06-08T03:03:43.847Z,1011.95
2017-06-08T03:04:24.398Z,1011.95
2017-06-08T03:05:04.950Z,1011.94
2017-06-08T03:05:45.501Z,1011.93
2017-06-08T03:06:26.041Z,1011.96
2017-06-08T03:07:06.591Z,1011.95
2017-06-08T03:07:47.121Z,1011.96
2017-06-08T03:08:27.671Z,1011.94
2017-06-08T03:09:08.224Z,1011.96
2017-06-08T03:09:48.775Z,1011.92
2017-06-08T03:10:29.324Z,1011.91
2017-06-08T03:11:09.874Z,1011.95
2017-06-08T03:11:50.418Z,1011.95
2017-06-08T03:12:30.967Z,1011.95
2017-06-08T03:13:11.499Z,1011.96
2017-06-08T03:13:52.046Z,1011.95
2017-06-08T03:14:32.601Z,1012
2017-06-08T03:15:13.151Z,1011.97
2017-06-08T03:15:53.701Z,1011.94
2017-06-08T03:16:34.250Z,1011.97
2017-06-08T03:17:14.801Z,1011.99
2017-06-08T03:17:55.356Z,1011.94
2017-06-08T03:18:35.902Z,1011.94
2017-06-08T03:19:16.442Z,1011.94
2017-06-08T03:19:56.979Z,1011.93
2017-06-08T03:20:37.532Z,1011.93
2017-06-08T03:21:18.073Z,1011.92
2017-06-08T03:21:58.617Z,1011.89
2017-06-08T03:22:39.163Z,1011.92
2017-06-08T03:23:19.679Z,1011.94
2017-06-08T03:24:00.220Z,1011.92
2017-06-08T03:24:40.770Z,1011.88
2017-06-08T03:25:21.318Z,1011.91
2017-06-08T03:26:01.864Z,1011.92
2017-06-08T03:26:42.400Z,1011.92
2017-06-08T03:27:22.944Z,1011.88
2017-06-08T03:28:03.518Z,1011.91
2017-06-08T03:28:44.062Z,1011.9
2017-06-08T03:29:24.593Z,1011.94
2017-06-08T03:30:05.129Z,1011.95
2017-06-08T03:30:45.684Z,1011.91
2017-06-08T03:31:26.220Z,1011.96
2017-06-08T03:32:06.741Z,1011.98
2017-06-08T03:32:47.288Z,1011.97
2017-06-08T03:33:27.831Z,1011.96
2017-06-08T03:34:08.449Z,1011.98
2017-06-08T03:34:48.998Z,1011.97
2017-06-08T03:35:29.548Z,1011.98
2017-06-08T03:36:10.083Z,1012
2017-06-08T03:36:50.633Z,1011.95
2017-06-08T03:37:31.203Z,1011.99
2017-06-08T03:38:11.747Z,1011.97
2017-06-08T03:38:52.295Z,1011.95
2017-06-08T03:39:32.830Z,1011.97
2017-06-08T03:40:13.371Z,1011.96
2017-06-08T03:40:53.908Z,1011.92
2017-06-08T03:41:34.459Z,1011.97
2017-06-08T03:42:14.985Z,1011.95
2017-06-08T03:42:55.535Z,1011.99
2017-06-08T03:43:36.063Z,1011.96
2017-06-08T03:44:16.609Z,1011.95
2017-06-08T03:44:57.154Z,1011.96
2017-06-08T03:45:37.686Z,1011.98
2017-06-08T03:46:18.239Z,1011.97
2017-06-08T03:46:58.856Z,1011.99
2017-06-08T03:47:39.407Z,1011.99
2017-06-08T03:48:19.952Z,1012
2017-06-08T03:49:00.499Z,1012.02
2017-06-08T03:49:41.192Z,1012.01
2017-06-08T03:50:21.745Z,1012
2017-06-08T03:51:02.288Z,1012.04
2017-06-08T03:51:42.828Z,1012.01
2017-06-08T03:52:23.401Z,1012.04
2017-06-08T03:53:03.936Z,1012.05
2017-06-08T03:53:44.481Z,1012.04
2017-06-08T03:54:25.028Z,1012.05
2017-06-08T03:55:05.580Z,1012.08
2017-06-08T03:55:46.107Z,1012.07
2017-06-08T03:56:26.657Z,1012.11
2017-06-08T03:57:07.200Z,1012.1
2017-06-08T03:57:47.745Z,1012.13
2017-06-08T03:58:28.287Z,1012.12
2017-06-08T03:59:09.082Z,1012.13
2017-06-08T03:59:49.640Z,1012.18
2017-06-08T04:00:30.603Z,1012.19
2017-06-08T04:01:11.155Z,1012.18
2017-06-08T04:01:51.705Z,1012.19
2017-06-08T04:02:32.252Z,1012.19
2017-06-08T04:03:12.802Z,1012.18
2017-06-08T04:03:53.357Z,1012.19
2017-06-08T04:04:33.903Z,1012.18
2017-06-08T04:05:14.446Z,1012.2
2017-06-08T04:05:54.994Z,1012.15
2017-06-08T04:06:35.537Z,1012.22
2017-06-08T04:07:16.083Z,1012.24
2017-06-08T04:07:56.630Z,1012.23
2017-06-08T04:08:37.158Z,1012.24
2017-06-08T04:09:17.696Z,1012.27
2017-06-08T04:09:58.232Z,1012.23
2017-06-08T04:10:38.774Z,1012.26
2017-06-08T04:11:19.313Z,1012.29
2017-06-08T04:11:59.860Z,1012.31
2017-06-08T04:12:40.404Z,1012.29
2017-06-08T04:13:20.951Z,1012.3
2017-06-08T04:14:01.493Z,1012.29
2017-06-08T04:14:42.034Z,1012.3
2017-06-08T04:15:22.576Z,1012.28
2017-06-08T04:16:03.112Z,1012.31
2017-06-08T04:16:43.652Z,1012.27
2017-06-08T04:17:24.188Z,1012.33
2017-06-08T04:18:04.728Z,1012.32
2017-06-08T04:18:45.268Z,1012.32
2017-06-08T04:19:25.806Z,1012.3
2017-06-08T04:20:06.350Z,1012.31
2017-06-08T04:20:46.898Z,1012.32
2017-06-08T04:21:27.433Z,1012.29
2017-06-08T04:22:07.967Z,1012.33
2017-06-08T04:22:48.506Z,1012.34
2017-06-08T04:23:29.046Z,1012.34
2017-06-08T04:24:09.581Z,1012.31
2017-06-08T04:24:50.130Z,1012.38
2017-06-08T04:25:30.704Z,1012.35
2017-06-08T04:26:11.353Z,1012.29
2017-06-08T04:26:51.934Z,1012.28
2017-06-08T04:27:32.545Z,1012.33
2017-06-08T04:28:13.088Z,1012.33
2017-06-08T04:28:53.624Z,1012.29
2017-06-08T04:29:34.165Z,1012.26
2017-06-08T04:30:14.712Z,1012.25
2017-06-08T04:30:55.259Z,1012.21
2017-06-08T04:31:35.797Z,1012.26
2017-06-08T04:32:16.335Z,1012.23
2017-06-08T04:32:56.873Z,1012.24
2017-06-08T04:33:37.426Z,1012.22
2017-06-08T04:34:17.973Z,1012.23
2017-06-08T04:34:58.527Z,1012.24
2017-06-08T04:35:39.065Z,1012.25
2017-06-08T04:36:19.608Z,1012.24
2017-06-08T04:37:00.142Z,1012.18
2017-06-08T04:37:40.692Z,1012.16
2017-06-08T04:38:21.236Z,1012.17
2017-06-08T04:39:01.773Z,1012.12
2017-06-08T04:39:42.317Z,1012.12
2017-06-08T04:40:22.866Z,1012.16
2017-06-08T04:41:03.418Z,1012.11
2017-06-08T04:41:43.956Z,1012.08
2017-06-08T04:42:24.497Z,1012.06
2017-06-08T04:43:05.031Z,1012.02
2017-06-08T04:43:45.582Z,1012.01
2017-06-08T04:44:26.123Z,1011.96
2017-06-08T04:45:06.667Z,1012.02
2017-06-08T04:45:47.212Z,1011.96
2017-06-08T04:46:27.746Z,1011.94
2017-06-08T04:47:08.284Z,1011.95
2017-06-08T04:47:48.830Z,1011.94
2017-06-08T04:48:29.435Z,1011.98
2017-06-08T04:49:09.973Z,1011.96
2017-06-08T04:49:50.510Z,1011.96
2017-06-08T04:50:31.064Z,1011.94
2017-06-08T04:51:11.611Z,1011.96
2017-06-08T04:51:52.154Z,1011.97
2017-06-08T04:52:32.691Z,1011.95
2017-06-08T04:53:13.230Z,1011.91
2017-06-08T04:53:53.767Z,1011.86
2017-06-08T04:54:34.299Z,1011.87
2017-06-08T04:55:14.848Z,1011.9
2017-06-08T04:55:55.392Z,1011.85
2017-06-08T04:56:35.935Z,1011.89
2017-06-08T04:57:16.503Z,1011.87
2017-06-08T04:57:57.020Z,1011.87
2017-06-08T04:58:37.567Z,1011.85
2017-06-08T04:59:18.108Z,1011.87
2017-06-08T04:59:58.649Z,1011.88
2017-06-08T05:00:39.200Z,1011.92
2017-06-08T05:01:19.744Z,1011.88
2017-06-08T05:02:00.290Z,1011.87
2017-06-08T05:02:40.822Z,1011.89
2017-06-08T05:03:21.362Z,1011.89
2017-06-08T05:04:01.909Z,1011.9
2017-06-08T05:04:42.453Z,1011.92
2017-06-08T05:05:23.025Z,1011.87
2017-06-08T05:06:03.535Z,1011.93
2017-06-08T05:06:44.084Z,1011.94
2017-06-08T05:07:24.629Z,1011.96
2017-06-08T05:08:05.180Z,1011.97
2017-06-08T05:08:45.727Z,1011.98
2017-06-08T05:09:26.279Z,1011.9
2017-06-08T05:10:06.822Z,1011.92
2017-06-08T05:10:47.360Z,1011.92
2017-06-08T05:11:27.936Z,1011.87
2017-06-08T05:12:08.485Z,1011.89
2017-06-08T05:12:49.015Z,1011.87
2017-06-08T05:13:29.555Z,1011.85
2017-06-08T05:14:10.082Z,1011.83
2017-06-08T05:14:50.622Z,1011.86
2017-06-08T05:15:31.168Z,1011.86
2017-06-08T05:16:11.725Z,1011.85
2017-06-08T05:16:52.275Z,1011.83
2017-06-08T05:17:32.819Z,1011.88
2017-06-08T05:18:13.360Z,1011.84
2017-06-08T05:18:53.895Z,1011.85
2017-06-08T05:19:34.444Z,1011.84
2017-06-08T05:20:14.994Z,1011.8
2017-06-08T05:20:55.534Z,1011.85
2017-06-08T05:21:36.072Z,1011.85
2017-06-08T05:22:16.648Z,1011.83
2017-06-08T05:22:57.181Z,1011.8
2017-06-08T05:23:37.722Z,1011.8
2017-06-08T05:24:18.272Z,1011.82
2017-06-08T05:24:58.814Z,1011.8
2017-06-08T05:25:39.344Z,1011.77
2017-06-08T05:26:19.880Z,1011.81
2017-06-08T05:27:00.422Z,1011.78
2017-06-08T05:27:40.964Z,1011.81
2017-06-08T05:28:21.503Z,1011.8
2017-06-08T05:29:02.049Z,1011.73
2017-06-08T05:29:42.604Z,1011.74
2017-06-08T05:30:23.158Z,1011.73
2017-06-08T05:31:03.703Z,1011.8
2017-06-08T05:31:44.257Z,1011.71
2017-06-08T05:32:24.808Z,1011.72
2017-06-08T05:33:05.358Z,1011.72
2017-06-08T05:33:45.908Z,1011.69
2017-06-08T05:34:26.459Z,1011.7
2017-06-08T05:35:07.009Z,1011.69
2017-06-08T05:35:47.560Z,1011.71
2017-06-08T05:36:28.161Z,1011.68
2017-06-08T05:37:08.713Z,1011.7
2017-06-08T05:37:49.258Z,1011.63
2017-06-08T05:38:29.834Z,1011.64
2017-06-08T05:39:10.388Z,1011.65
2017-06-08T05:39:50.937Z,1011.61
2017-06-08T05:40:31.475Z,1011.61
2017-06-08T05:41:12.104Z,1011.6
2017-06-08T05:41:52.650Z,1011.6
2017-06-08T05:42:33.276Z,1011.58
2017-06-08T05:43:13.826Z,1011.59
2017-06-08T05:43:54.377Z,1011.52
2017-06-08T05:44:34.933Z,1011.52
2017-06-08T05:45:15.479Z,1011.52
2017-06-08T05:45:56.044Z,1011.44
2017-06-08T05:46:36.578Z,1011.49
2017-06-08T05:47:17.127Z,1011.42
2017-06-08T05:47:57.683Z,1011.39
2017-06-08T05:48:38.234Z,1011.39
2017-06-08T05:49:18.790Z,1011.38
2017-06-08T05:49:59.338Z,1011.34
2017-06-08T05:50:39.891Z,1011.36
2017-06-08T05:51:20.455Z,1011.37
2017-06-08T05:52:00.996Z,1011.35
2017-06-08T05:52:41.725Z,1011.32
2017-06-08T05:53:22.540Z,1011.35
2017-06-08T05:54:03.075Z,1011.34
2017-06-08T05:54:43.621Z,1011.36
2017-06-08T05:55:24.159Z,1011.35
2017-06-08T05:56:04.707Z,1011.35
2017-06-08T05:56:45.256Z,1011.38
2017-06-08T05:57:25.800Z,1011.31
2017-06-08T05:58:06.358Z,1011.36
2017-06-08T05:58:46.897Z,1011.4
2017-06-08T05:59:27.439Z,1011.41
2017-06-08T06:00:08.002Z,1011.4
2017-06-08T06:00:48.537Z,1011.44
2017-06-08T06:01:29.087Z,1011.43
2017-06-08T06:02:09.637Z,1011.4
2017-06-08T06:02:50.247Z,1011.42
2017-06-08T06:03:30.790Z,1011.46
2017-06-08T06:04:11.447Z,1011.42
2017-06-08T06:04:52.008Z,1011.46
2017-06-08T06:05:32.540Z,1011.46
2017-06-08T06:06:13.106Z,1011.52
2017-06-08T06:06:53.627Z,1011.51
2017-06-08T06:07:34.176Z,1011.52
2017-06-08T06:08:14.769Z,1011.51
2017-06-08T06:08:55.318Z,1011.58
2017-06-08T06:09:35.853Z,1011.57
2017-06-08T06:10:16.394Z,1011.57
2017-06-08T06:10:56.944Z,1011.56
2017-06-08T06:11:37.486Z,1011.59
2017-06-08T06:12:18.048Z,1011.58
2017-06-08T06:12:58.590Z,1011.63
2017-06-08T06:13:39.130Z,1011.6
2017-06-08T06:14:19.700Z,1011.6
2017-06-08T06:15:00.235Z,1011.57
2017-06-08T06:15:40.774Z,1011.53
2017-06-08T06:16:21.336Z,1011.61
2017-06-08T06:17:01.890Z,1011.58
2017-06-08T06:17:42.435Z,1011.61
2017-06-08T06:18:22.982Z,1011.6
2017-06-08T06:19:03.542Z,1011.59
2017-06-08T06:19:44.087Z,1011.63
2017-06-08T06:20:24.640Z,1011.58
2017-06-08T06:21:05.184Z,1011.69
2017-06-08T06:21:45.744Z,1011.63
2017-06-08T06:22:26.294Z,1011.66
2017-06-08T06:23:06.844Z,1011.62
2017-06-08T06:23:47.396Z,1011.62
2017-06-08T06:24:27.946Z,1011.63
2017-06-08T06:25:08.496Z,1011.63
2017-06-08T06:25:49.042Z,1011.6
2017-06-08T06:26:29.576Z,1011.62
2017-06-08T06:27:10.123Z,1011.65
2017-06-08T06:27:50.678Z,1011.62
2017-06-08T06:28:31.249Z,1011.66
2017-06-08T06:29:11.798Z,1011.64
2017-06-08T06:29:52.348Z,1011.64
2017-06-08T06:30:32.898Z,1011.67
2017-06-08T06:31:13.450Z,1011.66
2017-06-08T06:31:54.004Z,1011.72
2017-06-08T06:32:34.555Z,1011.67
2017-06-08T06:33:15.106Z,1011.62
2017-06-08T06:33:55.657Z,1011.6
2017-06-08T06:34:36.205Z,1011.67
2017-06-08T06:35:16.759Z,1011.61
2017-06-08T06:35:57.357Z,1011.66
2017-06-08T06:36:37.942Z,1011.66
2017-06-08T06:37:18.486Z,1011.64
2017-06-08T06:37:59.051Z,1011.65
2017-06-08T06:38:39.594Z,1011.68
2017-06-08T06:39:20.144Z,1011.71
2017-06-08T06:40:00.691Z,1011.7
2017-06-08T06:40:41.245Z,1011.71
2017-06-08T06:41:21.801Z,1011.6
2017-06-08T06:42:02.347Z,1011.65
2017-06-08T06:42:42.891Z,1011.64
2017-06-08T06:43:23.449Z,1011.68
2017-06-08T06:44:04.048Z,1011.65
2017-06-08T06:44:44.684Z,1011.71
2017-06-08T06:45:25.318Z,1011.68
2017-06-08T06:46:05.850Z,1011.67
2017-06-08T06:46:46.403Z,1011.74
2017-06-08T06:47:26.952Z,1011.76
2017-06-08T06:48:07.513Z,1011.72
2017-06-08T06:48:48.057Z,1011.75
2017-06-08T06:49:28.613Z,1011.69
2017-06-08T06:50:09.178Z,1011.76
2017-06-08T06:50:49.713Z,1011.73
2017-06-08T06:51:30.257Z,1011.71
2017-06-08T06:52:10.785Z,1011.68
2017-06-08T06:52:51.329Z,1011.68
2017-06-08T06:53:31.866Z,1011.7
2017-06-08T06:54:12.445Z,1011.71
2017-06-08T06:54:52.986Z,1011.69
2017-06-08T06:55:33.521Z,1011.71
2017-06-08T06:56:14.065Z,1011.7
2017-06-08T06:56:54.600Z,1011.74
2017-06-08T06:57:35.140Z,1011.69
2017-06-08T06:58:15.689Z,1011.66
2017-06-08T06:58:56.243Z,1011.68
2017-06-08T06:59:36.796Z,1011.69
2017-06-08T07:00:17.345Z,1011.71
2017-06-08T07:00:57.894Z,1011.73
2017-06-08T07:01:38.443Z,1011.69
2017-06-08T07:02:18.987Z,1011.68
2017-06-08T07:02:59.524Z,1011.69
2017-06-08T07:03:40.076Z,1011.7
2017-06-08T07:04:20.623Z,1011.69
2017-06-08T07:05:01.169Z,1011.7
2017-06-08T07:05:41.711Z,1011.69
2017-06-08T07:06:22.248Z,1011.72
2017-06-08T07:07:02.787Z,1011.68
2017-06-08T07:07:43.324Z,1011.71
2017-06-08T07:08:23.873Z,1011.72
2017-06-08T07:09:04.425Z,1011.68
2017-06-08T07:09:44.967Z,1011.69
2017-06-08T07:10:25.511Z,1011.74
2017-06-08T07:11:06.057Z,1011.7
2017-06-08T07:11:46.605Z,1011.72
2017-06-08T07:12:27.151Z,1011.68
2017-06-08T07:13:07.694Z,1011.74
2017-06-08T07:13:48.236Z,1011.76
2017-06-08T07:14:28.783Z,1011.69
2017-06-08T07:15:09.334Z,1011.73
2017-06-08T07:15:49.902Z,1011.73
2017-06-08T07:16:30.435Z,1011.74
2017-06-08T07:17:10.984Z,1011.7
2017-06-08T07:17:51.535Z,1011.66
2017-06-08T07:18:32.074Z,1011.65
2017-06-08T07:19:12.609Z,1011.66
2017-06-08T07:19:53.157Z,1011.64
2017-06-08T07:20:33.697Z,1011.68
2017-06-08T07:21:14.253Z,1011.67
2017-06-08T07:21:54.804Z,1011.71
2017-06-08T07:22:35.339Z,1011.68
2017-06-08T07:23:15.890Z,1011.74
2017-06-08T07:23:56.424Z,1011.69
2017-06-08T07:24:36.971Z,1011.72
2017-06-08T07:25:17.524Z,1011.75
2017-06-08T07:25:58.070Z,1011.71
2017-06-08T07:26:38.620Z,1011.74
2017-06-08T07:27:19.163Z,1011.72
2017-06-08T07:27:59.708Z,1011.75
2017-06-08T07:28:40.256Z,1011.73
2017-06-08T07:29:20.804Z,1011.68
2017-06-08T07:30:01.342Z,1011.69
2017-06-08T07:30:41.900Z,1011.69
2017-06-08T07:31:22.468Z,1011.63
2017-06-08T07:32:03.014Z,1011.67
2017-06-08T07:32:43.578Z,1011.64
2017-06-08T07:33:24.124Z,1011.66
2017-06-08T07:34:04.696Z,1011.7
2017-06-08T07:34:45.273Z,1011.63
2017-06-08T07:35:25.823Z,1011.76
2017-06-08T07:36:06.374Z,1011.69
2017-06-08T07:36:46.917Z,1011.68
2017-06-08T07:37:27.476Z,1011.72
2017-06-08T07:38:08.036Z,1011.65
2017-06-08T07:38:48.572Z,1011.63
2017-06-08T07:39:29.137Z,1011.62
2017-06-08T07:40:09.686Z,1011.68
2017-06-08T07:40:50.227Z,1011.67
2017-06-08T07:41:30.776Z,1011.71
2017-06-08T07:42:11.323Z,1011.7
2017-06-08T07:42:51.879Z,1011.67
2017-06-08T07:43:32.417Z,1011.76
2017-06-08T07:44:12.959Z,1011.67
2017-06-08T07:44:53.504Z,1011.63
2017-06-08T07:45:34.053Z,1011.63
2017-06-08T07:46:14.597Z,1011.64
2017-06-08T07:46:55.162Z,1011.48
2017-06-08T07:47:35.702Z,1011.57
2017-06-08T07:48:16.251Z,1011.51
2017-06-08T07:48:56.795Z,1011.51
2017-06-08T07:49:37.341Z,1011.53
2017-06-08T07:50:17.898Z,1011.55
2017-06-08T07:50:58.437Z,1011.53
2017-06-08T07:51:38.984Z,1011.52
2017-06-08T07:52:19.530Z,1011.49
2017-06-08T07:53:00.079Z,1011.52
2017-06-08T07:53:40.621Z,1011.53
2017-06-08T07:54:21.207Z,1011.55
2017-06-08T07:55:01.705Z,1011.53
2017-06-08T07:55:42.245Z,1011.5
2017-06-08T07:56:22.790Z,1011.54
2017-06-08T07:57:03.345Z,1011.51
2017-06-08T07:57:43.874Z,1011.51
2017-06-08T07:58:24.442Z,1011.59
2017-06-08T07:59:04.973Z,1011.53
2017-06-08T07:59:45.515Z,1011.54
2017-06-08T08:00:26.065Z,1011.52
2017-06-08T08:01:06.614Z,1011.5
2017-06-08T08:01:47.159Z,1011.49
2017-06-08T08:02:27.715Z,1011.52
2017-06-08T08:03:08.257Z,1011.49
2017-06-08T08:03:48.806Z,1011.53
2017-06-08T08:04:29.360Z,1011.5
2017-06-08T08:05:09.903Z,1011.51
2017-06-08T08:05:50.456Z,1011.47
2017-06-08T08:06:31.014Z,1011.48
2017-06-08T08:07:11.558Z,1011.51
2017-06-08T08:07:52.107Z,1011.61
2017-06-08T08:08:32.656Z,1011.51
2017-06-08T08:09:13.206Z,1011.46
2017-06-08T08:09:53.756Z,1011.49
2017-06-08T08:10:34.307Z,1011.49
2017-06-08T08:11:14.869Z,1011.48
2017-06-08T08:11:55.424Z,1011.55
2017-06-08T08:12:35.971Z,1011.54
2017-06-08T08:13:16.521Z,1011.56
2017-06-08T08:13:57.057Z,1011.55
2017-06-08T08:14:37.607Z,1011.53
2017-06-08T08:15:18.162Z,1011.53
2017-06-08T08:15:58.707Z,1011.57